sensor_id;sensor_type;location;lat;lon;timestamp;temperature;humidity
25906;DHT22;13713;52.552;13.204;2024-02-04T00:00:28;14.00;97.10
25906;DHT22;13713;52.552;13.204;2024-02-04T00:02:53;14.00;97.10
25906;DHT22;13713;52.552;13.204;2024-02-04T00:05:19;14.00;97.00
25906;DHT22;13713;52.552;13.204;2024-02-04T00:07:45;14.00;97.10
25906;DHT22;13713;52.552;13.204;2024-02-04T00:10:11;14.00;97.00
25906;DHT22;13713;52.552;13.204;2024-02-04T00:12:37;14.00;97.00
25906;DHT22;13713;52.552;13.204;2024-02-04T00:15:04;14.00;97.00
25906;DHT22;13713;52.552;13.204;2024-02-04T00:17:30;14.00;96.90
25906;DHT22;13713;52.552;13.204;2024-02-04T00:19:59;14.00;97.00
25906;DHT22;13713;52.552;13.204;2024-02-04T00:22:25;14.00;97.10
25906;DHT22;13713;52.552;13.204;2024-02-04T00:24:50;14.00;97.00
25906;DHT22;13713;52.552;13.204;2024-02-04T00:27:16;14.00;97.00
25906;DHT22;13713;52.552;13.204;2024-02-04T00:29:42;14.00;97.00
25906;DHT22;13713;52.552;13.204;2024-02-04T00:32:07;13.90;97.00
25906;DHT22;13713;52.552;13.204;2024-02-04T00:34:33;14.00;97.00
25906;DHT22;13713;52.552;13.204;2024-02-04T00:36:59;14.00;97.00
25906;DHT22;13713;52.552;13.204;2024-02-04T00:39:26;14.00;97.00
25906;DHT22;13713;52.552;13.204;2024-02-04T00:41:51;14.00;97.10
25906;DHT22;13713;52.552;13.204;2024-02-04T00:44:17;14.00;96.90
25906;DHT22;13713;52.552;13.204;2024-02-04T00:46:44;14.10;96.80
25906;DHT22;13713;52.552;13.204;2024-02-04T00:49:09;14.00;96.80
25906;DHT22;13713;52.552;13.204;2024-02-04T00:51:35;14.00;96.80
25906;DHT22;13713;52.552;13.204;2024-02-04T00:54:01;14.00;96.80
25906;DHT22;13713;52.552;13.204;2024-02-04T00:56:27;14.00;96.70
25906;DHT22;13713;52.552;13.204;2024-02-04T00:58:53;14.00;96.60
25906;DHT22;13713;52.552;13.204;2024-02-04T01:01:18;14.00;96.70
25906;DHT22;13713;52.552;13.204;2024-02-04T01:03:47;14.00;96.70
25906;DHT22;13713;52.552;13.204;2024-02-04T01:06:12;14.00;96.60
25906;DHT22;13713;52.552;13.204;2024-02-04T01:08:38;14.00;96.70
25906;DHT22;13713;52.552;13.204;2024-02-04T01:11:07;14.00;96.60
25906;DHT22;13713;52.552;13.204;2024-02-04T01:13:32;14.00;96.50
25906;DHT22;13713;52.552;13.204;2024-02-04T01:15:58;14.00;96.50
25906;DHT22;13713;52.552;13.204;2024-02-04T01:18:24;14.00;96.50
25906;DHT22;13713;52.552;13.204;2024-02-04T01:20:50;13.90;96.30
25906;DHT22;13713;52.552;13.204;2024-02-04T01:23:15;14.00;96.40
25906;DHT22;13713;52.552;13.204;2024-02-04T01:25:43;14.00;96.40
25906;DHT22;13713;52.552;13.204;2024-02-04T01:28:09;14.00;96.50
25906;DHT22;13713;52.552;13.204;2024-02-04T01:30:35;14.00;96.50
25906;DHT22;13713;52.552;13.204;2024-02-04T01:33:01;14.00;96.40
25906;DHT22;13713;52.552;13.204;2024-02-04T01:35:26;14.00;96.50
25906;DHT22;13713;52.552;13.204;2024-02-04T01:37:53;14.00;96.40
25906;DHT22;13713;52.552;13.204;2024-02-04T01:40:19;13.90;96.30
25906;DHT22;13713;52.552;13.204;2024-02-04T01:42:44;13.90;96.30
25906;DHT22;13713;52.552;13.204;2024-02-04T01:45:10;13.90;96.30
25906;DHT22;13713;52.552;13.204;2024-02-04T01:47:37;13.90;96.80
25906;DHT22;13713;52.552;13.204;2024-02-04T01:50:03;13.90;96.40
25906;DHT22;13713;52.552;13.204;2024-02-04T01:52:31;13.90;96.30
25906;DHT22;13713;52.552;13.204;2024-02-04T01:54:59;13.90;96.40
25906;DHT22;13713;52.552;13.204;2024-02-04T01:57:26;13.90;96.40
25906;DHT22;13713;52.552;13.204;2024-02-04T01:59:52;13.90;96.50
25906;DHT22;13713;52.552;13.204;2024-02-04T02:02:20;13.90;96.40
25906;DHT22;13713;52.552;13.204;2024-02-04T02:04:46;13.90;96.50
25906;DHT22;13713;52.552;13.204;2024-02-04T02:07:13;13.90;96.50
25906;DHT22;13713;52.552;13.204;2024-02-04T02:09:42;13.90;96.40
25906;DHT22;13713;52.552;13.204;2024-02-04T02:12:12;13.90;96.50
25906;DHT22;13713;52.552;13.204;2024-02-04T02:14:43;13.90;96.40
25906;DHT22;13713;52.552;13.204;2024-02-04T02:17:15;13.90;96.40
25906;DHT22;13713;52.552;13.204;2024-02-04T02:19:52;13.90;96.40
25906;DHT22;13713;52.552;13.204;2024-02-04T02:24:49;13.90;96.40
25906;DHT22;13713;52.552;13.204;2024-02-04T02:27:16;13.90;96.60
25906;DHT22;13713;52.552;13.204;2024-02-04T02:29:42;14.00;96.50
25906;DHT22;13713;52.552;13.204;2024-02-04T02:32:08;13.90;96.50
25906;DHT22;13713;52.552;13.204;2024-02-04T02:34:33;13.90;96.40
25906;DHT22;13713;52.552;13.204;2024-02-04T02:37:29;13.90;96.50
25906;DHT22;13713;52.552;13.204;2024-02-04T02:42:42;13.90;96.50
25906;DHT22;13713;52.552;13.204;2024-02-04T02:45:09;13.90;96.50
25906;DHT22;13713;52.552;13.204;2024-02-04T02:47:38;13.90;96.40
25906;DHT22;13713;52.552;13.204;2024-02-04T02:50:05;13.90;96.40
25906;DHT22;13713;52.552;13.204;2024-02-04T02:52:31;13.90;96.50
25906;DHT22;13713;52.552;13.204;2024-02-04T02:54:57;13.90;96.50
25906;DHT22;13713;52.552;13.204;2024-02-04T02:57:22;13.90;96.50
25906;DHT22;13713;52.552;13.204;2024-02-04T02:59:48;13.90;96.60
25906;DHT22;13713;52.552;13.204;2024-02-04T03:02:14;13.80;96.50
25906;DHT22;13713;52.552;13.204;2024-02-04T03:04:39;13.80;96.50
25906;DHT22;13713;52.552;13.204;2024-02-04T03:07:05;13.80;96.50
25906;DHT22;13713;52.552;13.204;2024-02-04T03:09:33;13.80;96.50
25906;DHT22;13713;52.552;13.204;2024-02-04T03:11:59;13.80;96.50
25906;DHT22;13713;52.552;13.204;2024-02-04T03:14:24;13.80;96.50
25906;DHT22;13713;52.552;13.204;2024-02-04T03:16:50;13.90;96.50
25906;DHT22;13713;52.552;13.204;2024-02-04T03:19:16;13.80;96.50
25906;DHT22;13713;52.552;13.204;2024-02-04T03:21:41;13.80;96.40
25906;DHT22;13713;52.552;13.204;2024-02-04T03:24:07;13.80;96.40
25906;DHT22;13713;52.552;13.204;2024-02-04T03:26:33;13.80;96.40
25906;DHT22;13713;52.552;13.204;2024-02-04T03:28:59;13.90;96.50
25906;DHT22;13713;52.552;13.204;2024-02-04T03:31:24;13.90;96.40
25906;DHT22;13713;52.552;13.204;2024-02-04T03:33:51;13.80;96.50
25906;DHT22;13713;52.552;13.204;2024-02-04T03:36:22;13.80;96.50
25906;DHT22;13713;52.552;13.204;2024-02-04T03:38:49;13.80;96.50
25906;DHT22;13713;52.552;13.204;2024-02-04T03:41:16;13.80;96.50
25906;DHT22;13713;52.552;13.204;2024-02-04T03:43:41;13.90;96.40
25906;DHT22;13713;52.552;13.204;2024-02-04T03:46:07;13.80;96.40
25906;DHT22;13713;52.552;13.204;2024-02-04T03:48:33;13.80;96.50
25906;DHT22;13713;52.552;13.204;2024-02-04T03:51:01;13.80;96.50
25906;DHT22;13713;52.552;13.204;2024-02-04T03:53:27;13.80;96.50
25906;DHT22;13713;52.552;13.204;2024-02-04T03:55:53;13.80;96.50
25906;DHT22;13713;52.552;13.204;2024-02-04T03:58:20;13.80;96.50
25906;DHT22;13713;52.552;13.204;2024-02-04T04:00:45;13.90;96.40
25906;DHT22;13713;52.552;13.204;2024-02-04T04:03:11;13.80;96.40
25906;DHT22;13713;52.552;13.204;2024-02-04T04:05:37;13.70;96.70
25906;DHT22;13713;52.552;13.204;2024-02-04T04:08:03;13.80;96.40
25906;DHT22;13713;52.552;13.204;2024-02-04T04:10:28;13.80;96.30
25906;DHT22;13713;52.552;13.204;2024-02-04T04:12:54;13.80;96.50
25906;DHT22;13713;52.552;13.204;2024-02-04T04:15:20;13.80;96.30
25906;DHT22;13713;52.552;13.204;2024-02-04T04:17:45;13.80;96.50
25906;DHT22;13713;52.552;13.204;2024-02-04T04:20:11;13.80;96.40
25906;DHT22;13713;52.552;13.204;2024-02-04T04:22:40;13.80;96.50
25906;DHT22;13713;52.552;13.204;2024-02-04T04:25:06;13.80;96.80
25906;DHT22;13713;52.552;13.204;2024-02-04T04:27:32;13.80;96.50
25906;DHT22;13713;52.552;13.204;2024-02-04T04:29:58;13.80;96.50
25906;DHT22;13713;52.552;13.204;2024-02-04T04:32:23;13.80;96.40
25906;DHT22;13713;52.552;13.204;2024-02-04T04:34:49;13.80;96.40
25906;DHT22;13713;52.552;13.204;2024-02-04T04:37:15;13.70;96.40
25906;DHT22;13713;52.552;13.204;2024-02-04T04:39:40;13.70;96.40
25906;DHT22;13713;52.552;13.204;2024-02-04T04:42:06;13.70;96.40
25906;DHT22;13713;52.552;13.204;2024-02-04T04:44:31;13.70;96.40
25906;DHT22;13713;52.552;13.204;2024-02-04T04:46:57;13.70;96.30
25906;DHT22;13713;52.552;13.204;2024-02-04T04:49:23;13.70;96.40
25906;DHT22;13713;52.552;13.204;2024-02-04T04:51:48;13.70;96.30
25906;DHT22;13713;52.552;13.204;2024-02-04T04:54:14;13.70;96.30
25906;DHT22;13713;52.552;13.204;2024-02-04T04:56:40;13.70;96.40
25906;DHT22;13713;52.552;13.204;2024-02-04T04:59:09;13.70;96.30
25906;DHT22;13713;52.552;13.204;2024-02-04T05:01:35;13.80;96.30
25906;DHT22;13713;52.552;13.204;2024-02-04T05:04:01;13.70;96.30
25906;DHT22;13713;52.552;13.204;2024-02-04T05:06:26;13.80;96.30
25906;DHT22;13713;52.552;13.204;2024-02-04T05:08:52;13.70;96.20
25906;DHT22;13713;52.552;13.204;2024-02-04T05:11:18;13.70;96.30
25906;DHT22;13713;52.552;13.204;2024-02-04T05:13:44;13.70;96.30
25906;DHT22;13713;52.552;13.204;2024-02-04T05:16:09;13.80;96.30
25906;DHT22;13713;52.552;13.204;2024-02-04T05:18:35;13.70;96.30
25906;DHT22;13713;52.552;13.204;2024-02-04T05:21:02;13.70;96.20
25906;DHT22;13713;52.552;13.204;2024-02-04T05:23:28;13.70;96.30
25906;DHT22;13713;52.552;13.204;2024-02-04T05:25:53;13.70;96.20
25906;DHT22;13713;52.552;13.204;2024-02-04T05:28:20;13.70;96.20
25906;DHT22;13713;52.552;13.204;2024-02-04T05:30:46;13.70;96.30
25906;DHT22;13713;52.552;13.204;2024-02-04T05:33:14;13.70;96.30
25906;DHT22;13713;52.552;13.204;2024-02-04T05:35:41;13.70;96.20
25906;DHT22;13713;52.552;13.204;2024-02-04T05:38:09;13.70;96.30
25906;DHT22;13713;52.552;13.204;2024-02-04T05:40:34;13.70;96.30
25906;DHT22;13713;52.552;13.204;2024-02-04T05:43:00;13.70;96.20
25906;DHT22;13713;52.552;13.204;2024-02-04T05:45:31;13.70;96.10
25906;DHT22;13713;52.552;13.204;2024-02-04T05:47:57;13.70;96.20
25906;DHT22;13713;52.552;13.204;2024-02-04T05:50:22;13.70;96.20
25906;DHT22;13713;52.552;13.204;2024-02-04T05:52:48;13.70;96.20
25906;DHT22;13713;52.552;13.204;2024-02-04T05:55:14;13.60;96.10
25906;DHT22;13713;52.552;13.204;2024-02-04T05:57:40;13.60;96.20
25906;DHT22;13713;52.552;13.204;2024-02-04T06:00:07;13.70;96.20
25906;DHT22;13713;52.552;13.204;2024-02-04T06:02:34;13.70;96.20
25906;DHT22;13713;52.552;13.204;2024-02-04T06:05:00;13.70;96.10
25906;DHT22;13713;52.552;13.204;2024-02-04T06:07:26;13.70;96.20
25906;DHT22;13713;52.552;13.204;2024-02-04T06:09:51;13.70;96.30
25906;DHT22;13713;52.552;13.204;2024-02-04T06:12:17;13.60;96.10
25906;DHT22;13713;52.552;13.204;2024-02-04T06:14:43;13.60;96.00
25906;DHT22;13713;52.552;13.204;2024-02-04T06:17:08;13.70;96.10
25906;DHT22;13713;52.552;13.204;2024-02-04T06:19:35;13.60;96.10
25906;DHT22;13713;52.552;13.204;2024-02-04T06:22:01;13.60;96.00
25906;DHT22;13713;52.552;13.204;2024-02-04T06:24:26;13.60;96.10
25906;DHT22;13713;52.552;13.204;2024-02-04T06:26:52;13.70;96.10
25906;DHT22;13713;52.552;13.204;2024-02-04T06:29:18;13.70;96.00
25906;DHT22;13713;52.552;13.204;2024-02-04T06:31:47;13.60;96.00
25906;DHT22;13713;52.552;13.204;2024-02-04T06:34:13;13.60;96.00
25906;DHT22;13713;52.552;13.204;2024-02-04T06:36:42;13.60;95.90
25906;DHT22;13713;52.552;13.204;2024-02-04T06:39:09;13.60;96.00
25906;DHT22;13713;52.552;13.204;2024-02-04T06:41:35;13.60;96.00
25906;DHT22;13713;52.552;13.204;2024-02-04T06:44:05;13.60;96.00
25906;DHT22;13713;52.552;13.204;2024-02-04T06:46:31;13.60;96.00
25906;DHT22;13713;52.552;13.204;2024-02-04T06:48:57;13.60;96.00
25906;DHT22;13713;52.552;13.204;2024-02-04T06:51:22;13.60;96.10
25906;DHT22;13713;52.552;13.204;2024-02-04T06:53:48;13.60;96.10
25906;DHT22;13713;52.552;13.204;2024-02-04T06:56:14;13.60;96.00
25906;DHT22;13713;52.552;13.204;2024-02-04T06:58:43;13.60;96.00
25906;DHT22;13713;52.552;13.204;2024-02-04T07:01:09;13.60;96.00
25906;DHT22;13713;52.552;13.204;2024-02-04T07:03:35;13.60;96.10
25906;DHT22;13713;52.552;13.204;2024-02-04T07:06:01;13.60;96.20
25906;DHT22;13713;52.552;13.204;2024-02-04T07:08:27;13.50;96.00
25906;DHT22;13713;52.552;13.204;2024-02-04T07:10:53;13.60;96.00
25906;DHT22;13713;52.552;13.204;2024-02-04T07:13:19;13.60;95.90
25906;DHT22;13713;52.552;13.204;2024-02-04T07:15:45;13.60;96.10
25906;DHT22;13713;52.552;13.204;2024-02-04T07:18:11;13.60;96.10
25906;DHT22;13713;52.552;13.204;2024-02-04T07:20:37;13.60;96.00
25906;DHT22;13713;52.552;13.204;2024-02-04T07:23:04;13.70;96.00
25906;DHT22;13713;52.552;13.204;2024-02-04T07:25:30;13.60;95.90
25906;DHT22;13713;52.552;13.204;2024-02-04T07:27:57;13.60;96.00
25906;DHT22;13713;52.552;13.204;2024-02-04T07:30:23;13.60;96.00
25906;DHT22;13713;52.552;13.204;2024-02-04T07:32:49;13.70;96.00
25906;DHT22;13713;52.552;13.204;2024-02-04T07:35:15;13.60;95.90
25906;DHT22;13713;52.552;13.204;2024-02-04T07:37:40;13.60;95.90
25906;DHT22;13713;52.552;13.204;2024-02-04T07:40:07;13.60;95.80
25906;DHT22;13713;52.552;13.204;2024-02-04T07:42:32;13.60;95.80
25906;DHT22;13713;52.552;13.204;2024-02-04T07:44:58;13.60;95.80
25906;DHT22;13713;52.552;13.204;2024-02-04T07:47:24;13.60;95.80
25906;DHT22;13713;52.552;13.204;2024-02-04T07:49:50;13.60;95.80
25906;DHT22;13713;52.552;13.204;2024-02-04T07:52:16;13.70;95.70
25906;DHT22;13713;52.552;13.204;2024-02-04T07:54:42;13.60;95.70
25906;DHT22;13713;52.552;13.204;2024-02-04T07:57:12;13.60;95.70
25906;DHT22;13713;52.552;13.204;2024-02-04T07:59:38;13.60;95.60
25906;DHT22;13713;52.552;13.204;2024-02-04T08:02:04;13.60;95.60
25906;DHT22;13713;52.552;13.204;2024-02-04T08:04:30;13.70;95.60
25906;DHT22;13713;52.552;13.204;2024-02-04T08:06:55;13.60;95.60
25906;DHT22;13713;52.552;13.204;2024-02-04T08:09:21;13.60;95.60
25906;DHT22;13713;52.552;13.204;2024-02-04T08:11:47;13.60;95.60
25906;DHT22;13713;52.552;13.204;2024-02-04T08:14:13;13.60;95.50
25906;DHT22;13713;52.552;13.204;2024-02-04T08:16:40;13.60;95.40
25906;DHT22;13713;52.552;13.204;2024-02-04T08:19:06;13.70;95.50
25906;DHT22;13713;52.552;13.204;2024-02-04T08:21:32;13.60;95.40
25906;DHT22;13713;52.552;13.204;2024-02-04T08:23:58;13.60;95.30
25906;DHT22;13713;52.552;13.204;2024-02-04T08:26:24;13.60;95.40
25906;DHT22;13713;52.552;13.204;2024-02-04T08:28:50;13.60;95.30
25906;DHT22;13713;52.552;13.204;2024-02-04T08:31:16;13.60;95.40
25906;DHT22;13713;52.552;13.204;2024-02-04T08:33:42;13.70;95.30
25906;DHT22;13713;52.552;13.204;2024-02-04T08:36:07;13.60;95.40
25906;DHT22;13713;52.552;13.204;2024-02-04T08:38:36;13.60;95.40
25906;DHT22;13713;52.552;13.204;2024-02-04T08:41:02;13.70;95.40
25906;DHT22;13713;52.552;13.204;2024-02-04T08:43:28;13.60;95.80
25906;DHT22;13713;52.552;13.204;2024-02-04T08:45:54;13.60;95.40
25906;DHT22;13713;52.552;13.204;2024-02-04T08:48:19;13.60;95.40
25906;DHT22;13713;52.552;13.204;2024-02-04T08:50:45;13.60;95.40
25906;DHT22;13713;52.552;13.204;2024-02-04T08:53:11;13.60;95.40
25906;DHT22;13713;52.552;13.204;2024-02-04T08:55:36;13.60;95.30
25906;DHT22;13713;52.552;13.204;2024-02-04T08:58:02;13.60;95.30
25906;DHT22;13713;52.552;13.204;2024-02-04T09:00:28;13.60;95.40
25906;DHT22;13713;52.552;13.204;2024-02-04T09:02:53;13.60;95.40
25906;DHT22;13713;52.552;13.204;2024-02-04T09:05:19;13.60;95.40
25906;DHT22;13713;52.552;13.204;2024-02-04T09:07:45;13.60;95.30
25906;DHT22;13713;52.552;13.204;2024-02-04T09:10:11;13.60;95.30
25906;DHT22;13713;52.552;13.204;2024-02-04T09:12:38;13.60;95.20
25906;DHT22;13713;52.552;13.204;2024-02-04T09:15:04;13.60;95.20
25906;DHT22;13713;52.552;13.204;2024-02-04T09:17:30;13.60;95.10
25906;DHT22;13713;52.552;13.204;2024-02-04T09:19:59;13.60;95.20
25906;DHT22;13713;52.552;13.204;2024-02-04T09:22:25;13.60;95.20
25906;DHT22;13713;52.552;13.204;2024-02-04T09:24:50;13.60;95.20
25906;DHT22;13713;52.552;13.204;2024-02-04T09:27:16;13.60;95.10
25906;DHT22;13713;52.552;13.204;2024-02-04T09:29:42;13.60;95.10
25906;DHT22;13713;52.552;13.204;2024-02-04T09:32:07;13.60;95.10
25906;DHT22;13713;52.552;13.204;2024-02-04T09:34:33;13.60;95.00
25906;DHT22;13713;52.552;13.204;2024-02-04T09:36:59;13.60;95.00
25906;DHT22;13713;52.552;13.204;2024-02-04T09:39:25;13.60;94.90
25906;DHT22;13713;52.552;13.204;2024-02-04T09:41:50;13.60;94.90
25906;DHT22;13713;52.552;13.204;2024-02-04T09:44:16;13.60;94.90
25906;DHT22;13713;52.552;13.204;2024-02-04T09:46:42;13.60;94.70
25906;DHT22;13713;52.552;13.204;2024-02-04T09:49:09;13.70;94.70
25906;DHT22;13713;52.552;13.204;2024-02-04T09:51:35;13.70;94.60
25906;DHT22;13713;52.552;13.204;2024-02-04T09:54:04;13.70;94.60
25906;DHT22;13713;52.552;13.204;2024-02-04T09:56:33;13.70;94.60
25906;DHT22;13713;52.552;13.204;2024-02-04T09:59:00;13.70;94.50
25906;DHT22;13713;52.552;13.204;2024-02-04T10:01:26;13.70;94.50
25906;DHT22;13713;52.552;13.204;2024-02-04T10:03:52;13.70;94.50
25906;DHT22;13713;52.552;13.204;2024-02-04T10:06:18;13.70;94.40
25906;DHT22;13713;52.552;13.204;2024-02-04T10:08:43;13.70;94.50
25906;DHT22;13713;52.552;13.204;2024-02-04T10:11:10;13.70;94.30
25906;DHT22;13713;52.552;13.204;2024-02-04T10:14:02;13.70;94.30
25906;DHT22;13713;52.552;13.204;2024-02-04T10:16:28;13.70;94.20
25906;DHT22;13713;52.552;13.204;2024-02-04T10:18:54;13.70;94.20
25906;DHT22;13713;52.552;13.204;2024-02-04T10:21:22;13.70;94.10
25906;DHT22;13713;52.552;13.204;2024-02-04T10:23:50;13.70;94.00
25906;DHT22;13713;52.552;13.204;2024-02-04T10:26:17;13.80;93.90
25906;DHT22;13713;52.552;13.204;2024-02-04T10:28:46;13.80;93.80
25906;DHT22;13713;52.552;13.204;2024-02-04T10:31:13;13.70;93.80
25906;DHT22;13713;52.552;13.204;2024-02-04T10:33:39;13.80;93.90
25906;DHT22;13713;52.552;13.204;2024-02-04T10:36:06;13.70;93.80
25906;DHT22;13713;52.552;13.204;2024-02-04T10:38:35;13.70;93.80
25906;DHT22;13713;52.552;13.204;2024-02-04T10:41:01;13.70;93.80
25906;DHT22;13713;52.552;13.204;2024-02-04T10:43:31;13.70;93.80
25906;DHT22;13713;52.552;13.204;2024-02-04T10:46:04;13.70;93.70
25906;DHT22;13713;52.552;13.204;2024-02-04T10:48:36;13.70;93.60
25906;DHT22;13713;52.552;13.204;2024-02-04T10:51:12;13.70;94.00
25906;DHT22;13713;52.552;13.204;2024-02-04T10:53:40;13.70;93.70
25906;DHT22;13713;52.552;13.204;2024-02-04T10:56:06;13.60;93.70
25906;DHT22;13713;52.552;13.204;2024-02-04T10:58:34;13.70;93.80
25906;DHT22;13713;52.552;13.204;2024-02-04T11:01:01;13.70;93.80
25906;DHT22;13713;52.552;13.204;2024-02-04T11:03:27;13.70;93.80
25906;DHT22;13713;52.552;13.204;2024-02-04T11:05:54;13.80;93.70
25906;DHT22;13713;52.552;13.204;2024-02-04T11:08:20;13.70;93.70
25906;DHT22;13713;52.552;13.204;2024-02-04T11:10:46;13.60;93.70
25906;DHT22;13713;52.552;13.204;2024-02-04T11:13:13;13.60;93.70
25906;DHT22;13713;52.552;13.204;2024-02-04T11:15:40;13.60;93.70
25906;DHT22;13713;52.552;13.204;2024-02-04T11:18:30;13.60;93.60
25906;DHT22;13713;52.552;13.204;2024-02-04T11:21:30;13.60;93.60
25906;DHT22;13713;52.552;13.204;2024-02-04T11:24:21;13.60;93.60
25906;DHT22;13713;52.552;13.204;2024-02-04T11:26:51;13.70;93.70
25906;DHT22;13713;52.552;13.204;2024-02-04T11:29:17;13.60;93.50
25906;DHT22;13713;52.552;13.204;2024-02-04T11:31:43;13.60;93.50
25906;DHT22;13713;52.552;13.204;2024-02-04T11:34:10;13.60;93.50
25906;DHT22;13713;52.552;13.204;2024-02-04T11:36:40;13.70;93.40
25906;DHT22;13713;52.552;13.204;2024-02-04T11:39:18;13.50;93.40
25906;DHT22;13713;52.552;13.204;2024-02-04T11:41:47;13.60;93.40
25906;DHT22;13713;52.552;13.204;2024-02-04T11:44:28;13.60;93.40
25906;DHT22;13713;52.552;13.204;2024-02-04T11:46:55;13.60;93.40
25906;DHT22;13713;52.552;13.204;2024-02-04T11:49:25;13.60;93.40
25906;DHT22;13713;52.552;13.204;2024-02-04T11:51:51;13.60;93.30
25906;DHT22;13713;52.552;13.204;2024-02-04T11:54:19;13.60;93.40
25906;DHT22;13713;52.552;13.204;2024-02-04T11:56:45;13.60;93.30
25906;DHT22;13713;52.552;13.204;2024-02-04T11:59:27;13.60;93.30
25906;DHT22;13713;52.552;13.204;2024-02-04T12:01:55;13.50;93.20
25906;DHT22;13713;52.552;13.204;2024-02-04T12:04:22;13.60;93.20
25906;DHT22;13713;52.552;13.204;2024-02-04T12:06:48;13.60;93.30
25906;DHT22;13713;52.552;13.204;2024-02-04T12:09:17;13.70;93.30
25906;DHT22;13713;52.552;13.204;2024-02-04T12:11:47;13.60;93.20
25906;DHT22;13713;52.552;13.204;2024-02-04T12:14:14;13.60;93.20
25906;DHT22;13713;52.552;13.204;2024-02-04T12:16:41;13.60;93.10
25906;DHT22;13713;52.552;13.204;2024-02-04T12:19:07;13.60;93.10
25906;DHT22;13713;52.552;13.204;2024-02-04T12:21:33;13.60;93.10
25906;DHT22;13713;52.552;13.204;2024-02-04T12:23:59;13.60;93.10
25906;DHT22;13713;52.552;13.204;2024-02-04T12:26:25;13.50;93.00
25906;DHT22;13713;52.552;13.204;2024-02-04T12:28:52;13.60;93.00
25906;DHT22;13713;52.552;13.204;2024-02-04T12:31:22;13.60;92.90
25906;DHT22;13713;52.552;13.204;2024-02-04T12:33:55;13.50;92.90
25906;DHT22;13713;52.552;13.204;2024-02-04T12:36:23;13.50;93.00
25906;DHT22;13713;52.552;13.204;2024-02-04T12:38:57;13.60;93.00
25906;DHT22;13713;52.552;13.204;2024-02-04T12:41:24;13.60;92.80
25906;DHT22;13713;52.552;13.204;2024-02-04T12:46:16;13.50;92.80
25906;DHT22;13713;52.552;13.204;2024-02-04T12:48:42;13.50;92.90
25906;DHT22;13713;52.552;13.204;2024-02-04T12:51:08;13.50;92.60
25906;DHT22;13713;52.552;13.204;2024-02-04T12:53:37;13.50;92.70
25906;DHT22;13713;52.552;13.204;2024-02-04T12:56:02;13.40;92.50
25906;DHT22;13713;52.552;13.204;2024-02-04T12:58:28;13.50;92.60
25906;DHT22;13713;52.552;13.204;2024-02-04T13:01:01;13.50;92.60
25906;DHT22;13713;52.552;13.204;2024-02-04T13:03:27;13.50;92.70
25906;DHT22;13713;52.552;13.204;2024-02-04T13:05:57;13.50;92.50
25906;DHT22;13713;52.552;13.204;2024-02-04T13:08:24;13.50;92.50
25906;DHT22;13713;52.552;13.204;2024-02-04T13:10:56;13.40;92.30
25906;DHT22;13713;52.552;13.204;2024-02-04T13:13:22;13.50;92.30
25906;DHT22;13713;52.552;13.204;2024-02-04T13:15:52;13.60;92.50
25906;DHT22;13713;52.552;13.204;2024-02-04T13:18:18;13.50;92.40
25906;DHT22;13713;52.552;13.204;2024-02-04T13:20:44;13.40;92.50
25906;DHT22;13713;52.552;13.204;2024-02-04T13:23:11;13.40;92.40
25906;DHT22;13713;52.552;13.204;2024-02-04T13:25:37;13.60;92.50
25906;DHT22;13713;52.552;13.204;2024-02-04T13:28:03;13.50;92.60
25906;DHT22;13713;52.552;13.204;2024-02-04T13:30:29;13.50;92.50
25906;DHT22;13713;52.552;13.204;2024-02-04T13:32:55;13.30;92.30
25906;DHT22;13713;52.552;13.204;2024-02-04T13:35:23;13.50;92.50
25906;DHT22;13713;52.552;13.204;2024-02-04T13:37:49;13.50;92.30
25906;DHT22;13713;52.552;13.204;2024-02-04T13:40:18;13.30;92.30
25906;DHT22;13713;52.552;13.204;2024-02-04T13:42:45;13.40;92.30
25906;DHT22;13713;52.552;13.204;2024-02-04T13:45:11;13.40;92.20
25906;DHT22;13713;52.552;13.204;2024-02-04T13:47:40;13.50;92.30
25906;DHT22;13713;52.552;13.204;2024-02-04T13:50:07;13.50;92.20
25906;DHT22;13713;52.552;13.204;2024-02-04T13:52:34;13.40;92.20
25906;DHT22;13713;52.552;13.204;2024-02-04T13:55:00;13.40;92.20
25906;DHT22;13713;52.552;13.204;2024-02-04T13:57:25;13.50;92.30
25906;DHT22;13713;52.552;13.204;2024-02-04T13:59:51;13.40;92.30
25906;DHT22;13713;52.552;13.204;2024-02-04T14:02:17;13.50;92.20
25906;DHT22;13713;52.552;13.204;2024-02-04T14:04:42;13.60;92.10
25906;DHT22;13713;52.552;13.204;2024-02-04T14:07:08;13.40;92.30
25906;DHT22;13713;52.552;13.204;2024-02-04T14:09:35;13.50;92.10
25906;DHT22;13713;52.552;13.204;2024-02-04T14:12:02;13.40;91.90
25906;DHT22;13713;52.552;13.204;2024-02-04T14:14:28;13.40;92.00
25906;DHT22;13713;52.552;13.204;2024-02-04T14:16:54;13.40;92.20
25906;DHT22;13713;52.552;13.204;2024-02-04T14:19:20;13.40;92.10
25906;DHT22;13713;52.552;13.204;2024-02-04T14:21:46;13.40;92.00
25906;DHT22;13713;52.552;13.204;2024-02-04T14:24:12;13.40;92.10
25906;DHT22;13713;52.552;13.204;2024-02-04T14:26:38;13.40;92.00
25906;DHT22;13713;52.552;13.204;2024-02-04T14:29:04;13.40;92.00
25906;DHT22;13713;52.552;13.204;2024-02-04T14:31:30;13.40;92.10
25906;DHT22;13713;52.552;13.204;2024-02-04T14:33:55;13.40;92.10
25906;DHT22;13713;52.552;13.204;2024-02-04T14:36:21;13.40;92.00
25906;DHT22;13713;52.552;13.204;2024-02-04T14:38:47;13.40;92.00
25906;DHT22;13713;52.552;13.204;2024-02-04T14:41:13;13.40;92.10
25906;DHT22;13713;52.552;13.204;2024-02-04T14:43:38;13.40;92.00
25906;DHT22;13713;52.552;13.204;2024-02-04T14:46:04;13.40;92.00
25906;DHT22;13713;52.552;13.204;2024-02-04T14:48:30;13.40;92.30
25906;DHT22;13713;52.552;13.204;2024-02-04T14:50:56;13.40;92.00
25906;DHT22;13713;52.552;13.204;2024-02-04T14:53:24;13.40;92.10
25906;DHT22;13713;52.552;13.204;2024-02-04T14:55:50;13.40;92.10
25906;DHT22;13713;52.552;13.204;2024-02-04T14:58:16;13.40;92.10
25906;DHT22;13713;52.552;13.204;2024-02-04T15:00:41;13.40;92.10
25906;DHT22;13713;52.552;13.204;2024-02-04T15:03:07;13.30;92.20
25906;DHT22;13713;52.552;13.204;2024-02-04T15:05:34;13.40;92.10
25906;DHT22;13713;52.552;13.204;2024-02-04T15:08:00;13.30;92.20
25906;DHT22;13713;52.552;13.204;2024-02-04T15:10:26;13.30;92.30
25906;DHT22;13713;52.552;13.204;2024-02-04T15:12:51;13.30;92.10
25906;DHT22;13713;52.552;13.204;2024-02-04T15:15:19;13.30;92.30
25906;DHT22;13713;52.552;13.204;2024-02-04T15:17:45;13.30;92.20
25906;DHT22;13713;52.552;13.204;2024-02-04T15:20:11;13.40;92.10